createdAt,value
2018-04-30T00:00:21.146Z,94.10
2018-04-30T00:02:47.621Z,94.00
2018-04-30T00:05:13.881Z,94.10
2018-04-30T00:07:40.129Z,93.80
2018-04-30T00:10:07.151Z,94.10
2018-04-30T00:12:33.866Z,94.10
2018-04-30T00:15:00.153Z,93.60
2018-04-30T00:17:26.454Z,93.90
2018-04-30T00:19:52.725Z,93.90
2018-04-30T00:22:18.974Z,94.10
2018-04-30T00:24:45.469Z,93.70
2018-04-30T00:27:11.730Z,93.50
2018-04-30T00:29:38.395Z,93.80
2018-04-30T00:32:04.684Z,93.60
2018-04-30T00:34:31.358Z,93.70
2018-04-30T00:36:58.349Z,93.90
2018-04-30T00:39:24.624Z,93.90
2018-04-30T00:41:50.874Z,93.80
2018-04-30T00:44:17.738Z,93.80
2018-04-30T00:46:43.994Z,94.20
2018-04-30T00:49:10.775Z,93.80
2018-04-30T00:51:37.250Z,94.10
2018-04-30T00:54:03.552Z,93.90
2018-04-30T00:56:29.823Z,94.10
2018-04-30T00:58:56.107Z,93.90
2018-04-30T01:01:22.416Z,93.70
2018-04-30T01:03:49.474Z,94.20
2018-04-30T01:06:15.734Z,93.80
2018-04-30T01:08:42.010Z,94.20
2018-04-30T01:11:09.254Z,93.70
2018-04-30T01:13:39.274Z,93.80
2018-04-30T01:16:05.653Z,93.80
2018-04-30T01:18:32.621Z,93.80
2018-04-30T01:20:58.915Z,93.80
2018-04-30T01:23:25.424Z,94.00
2018-04-30T01:25:51.733Z,94.00
2018-04-30T01:28:17.993Z,93.80
2018-04-30T01:30:44.810Z,93.90
2018-04-30T01:33:11.081Z,94.10
2018-04-30T01:35:37.681Z,94.00
2018-04-30T01:38:04.040Z,94.20
2018-04-30T01:40:30.914Z,94.00
2018-04-30T01:42:57.256Z,94.20
2018-04-30T01:45:24.250Z,93.70
2018-04-30T01:47:50.485Z,93.70
2018-04-30T01:50:17.323Z,93.80
2018-04-30T01:52:43.577Z,94.00
2018-04-30T01:55:10.041Z,93.90
2018-04-30T01:57:36.284Z,93.80
2018-04-30T02:00:03.997Z,93.80
2018-04-30T02:02:30.269Z,93.50
2018-04-30T02:04:56.552Z,93.80
2018-04-30T02:07:23.237Z,93.60
2018-04-30T02:09:49.537Z,93.80
2018-04-30T02:12:16.378Z,94.00
2018-04-30T02:14:43.476Z,94.10
2018-04-30T02:17:09.758Z,94.10
2018-04-30T02:19:36.590Z,93.40
2018-04-30T02:22:02.941Z,93.70
2018-04-30T02:24:29.238Z,93.70
2018-04-30T02:26:55.891Z,93.50
2018-04-30T02:29:22.185Z,93.80
2018-04-30T02:31:49.426Z,94.10
2018-04-30T02:34:15.690Z,93.20
2018-04-30T02:36:42.122Z,93.80
2018-04-30T02:39:08.453Z,93.50
2018-04-30T02:41:35.118Z,93.90
2018-04-30T02:44:01.416Z,93.90
2018-04-30T02:46:27.718Z,93.30
2018-04-30T02:48:53.970Z,93.60
2018-04-30T02:51:21.645Z,93.80
2018-04-30T02:53:48.000Z,94.00
2018-04-30T02:56:15.022Z,93.80
2018-04-30T02:58:41.286Z,93.60
2018-04-30T03:01:07.906Z,94.30
2018-04-30T03:03:34.181Z,93.80
2018-04-30T03:06:00.525Z,94.00
2018-04-30T03:08:28.062Z,93.90
2018-04-30T03:10:54.780Z,93.90
2018-04-30T03:13:21.054Z,94.00
2018-04-30T03:15:47.361Z,94.30
2018-04-30T03:18:13.625Z,94.10
2018-04-30T03:20:39.917Z,94.20
2018-04-30T03:23:06.453Z,94.40
2018-04-30T03:25:32.714Z,94.40
2018-04-30T03:27:59.594Z,94.50
2018-04-30T03:30:25.857Z,94.70
2018-04-30T03:32:52.482Z,94.70
2018-04-30T03:35:18.762Z,94.70
2018-04-30T03:37:45.844Z,94.80
2018-04-30T03:42:58.874Z,94.70
2018-04-30T03:45:25.169Z,94.10
2018-04-30T03:47:51.727Z,94.20
2018-04-30T03:50:17.972Z,94.20
2018-04-30T03:52:44.257Z,93.90
2018-04-30T03:55:10.521Z,93.90
2018-04-30T03:57:36.823Z,93.70
2018-04-30T04:00:03.141Z,93.50
2018-04-30T04:02:42.306Z,94.00
2018-04-30T04:05:20.773Z,94.00
2018-04-30T04:07:47.037Z,93.80
2018-04-30T04:10:13.645Z,93.90
2018-04-30T04:12:41.140Z,94.00
2018-04-30T04:15:07.415Z,93.40
2018-04-30T04:17:34.846Z,93.40
2018-04-30T04:20:01.138Z,93.30
2018-04-30T04:22:27.386Z,93.70
2018-04-30T04:24:53.665Z,93.30
2018-04-30T04:27:20.677Z,92.90
2018-04-30T04:29:47.049Z,92.90
2018-04-30T04:32:13.383Z,93.10
2018-04-30T04:34:40.420Z,93.00
2018-04-30T04:37:06.695Z,93.00
2018-04-30T04:39:32.965Z,93.30
2018-04-30T04:41:59.217Z,93.70
2018-04-30T04:44:26.240Z,94.40
2018-04-30T04:46:52.497Z,94.10
2018-04-30T04:49:18.926Z,94.10
2018-04-30T04:51:45.224Z,94.10
2018-04-30T04:54:11.793Z,94.10
2018-04-30T04:56:38.210Z,94.20
2018-04-30T04:59:04.463Z,94.40
2018-04-30T05:01:30.773Z,94.40
2018-04-30T05:03:57.040Z,94.20
2018-04-30T05:06:23.702Z,94.40
2018-04-30T05:08:49.983Z,94.20
2018-04-30T05:11:16.817Z,93.70
2018-04-30T05:13:43.054Z,93.60
2018-04-30T05:16:09.693Z,93.40
2018-04-30T05:18:35.936Z,93.40
2018-04-30T05:21:03.105Z,92.90
2018-04-30T05:23:30.161Z,93.40
2018-04-30T05:25:56.438Z,93.10
2018-04-30T05:28:22.730Z,92.80
2018-04-30T05:30:49.473Z,92.90
2018-04-30T05:33:15.713Z,92.50
2018-04-30T05:35:42.257Z,92.20
2018-04-30T05:38:08.525Z,91.90
2018-04-30T05:40:34.769Z,92.10
2018-04-30T05:43:01.017Z,90.60
2018-04-30T05:45:27.281Z,90.20
2018-04-30T05:47:53.857Z,88.20
2018-04-30T05:50:20.110Z,89.00
2018-04-30T05:52:46.570Z,89.60
2018-04-30T05:55:13.049Z,88.60
2018-04-30T05:57:39.325Z,89.80
2018-04-30T06:00:05.631Z,90.50
2018-04-30T06:02:31.894Z,90.90
2018-04-30T06:04:58.385Z,91.00
2018-04-30T06:07:24.650Z,90.70
2018-04-30T06:09:51.605Z,90.80
2018-04-30T06:12:17.874Z,90.70
2018-04-30T06:14:44.111Z,88.10
2018-04-30T06:17:10.421Z,88.10
2018-04-30T06:19:36.657Z,86.50
2018-04-30T06:22:03.441Z,88.90
2018-04-30T06:24:30.284Z,86.70
2018-04-30T06:26:57.248Z,86.20
2018-04-30T06:29:23.469Z,86.60
2018-04-30T06:31:50.066Z,87.00
2018-04-30T06:34:16.337Z,87.00
2018-04-30T06:36:43.029Z,86.80
2018-04-30T06:39:09.901Z,86.10
2018-04-30T06:41:36.173Z,86.70
2018-04-30T06:44:02.456Z,85.00
2018-04-30T06:46:29.463Z,84.10
2018-04-30T06:48:55.735Z,84.00
2018-04-30T06:51:22.309Z,83.80
2018-04-30T06:53:48.995Z,83.70
2018-04-30T06:56:15.539Z,84.30
2018-04-30T06:58:43.735Z,84.00
2018-04-30T07:01:10.792Z,85.30
2018-04-30T07:03:37.070Z,85.30
2018-04-30T07:06:05.249Z,84.00
2018-04-30T07:08:31.548Z,84.00
2018-04-30T07:10:57.807Z,84.20
2018-04-30T07:13:24.609Z,84.30
2018-04-30T07:15:50.890Z,83.90
2018-04-30T07:18:17.718Z,81.90
2018-04-30T07:20:43.997Z,82.60
2018-04-30T07:23:11.109Z,81.00
2018-04-30T07:25:37.597Z,81.10
2018-04-30T07:28:04.899Z,81.00
2018-04-30T07:30:31.173Z,81.00
2018-04-30T07:32:58.421Z,81.90
2018-04-30T07:35:25.489Z,78.60
2018-04-30T07:37:51.785Z,78.60
2018-04-30T07:40:18.183Z,80.40
2018-04-30T07:42:45.457Z,79.50
2018-04-30T07:45:11.762Z,79.60
2018-04-30T07:47:38.193Z,78.90
2018-04-30T07:50:04.539Z,79.10
2018-04-30T07:52:31.058Z,78.20
2018-04-30T07:54:57.321Z,78.60
2018-04-30T07:57:23.667Z,80.40
2018-04-30T07:59:50.612Z,78.70
2018-04-30T08:02:16.930Z,78.60
2018-04-30T08:04:43.223Z,78.10
2018-04-30T08:07:09.605Z,77.70
2018-04-30T08:09:36.190Z,77.80
2018-04-30T08:12:02.637Z,78.90
2018-04-30T08:14:31.877Z,78.40
2018-04-30T08:16:58.202Z,77.90
2018-04-30T08:19:24.474Z,77.70
2018-04-30T08:21:50.717Z,77.50
2018-04-30T08:24:17.913Z,77.70
2018-04-30T08:26:44.153Z,77.60
2018-04-30T08:29:10.430Z,77.70
2018-04-30T08:31:37.430Z,76.70
2018-04-30T08:34:03.697Z,76.70
2018-04-30T08:36:29.977Z,75.50
2018-04-30T08:38:56.241Z,75.10
2018-04-30T08:41:22.968Z,74.70
2018-04-30T08:43:49.234Z,73.70
2018-04-30T08:46:16.317Z,73.80
2018-04-30T08:48:46.509Z,73.80
2018-04-30T08:51:13.026Z,73.20
2018-04-30T08:53:39.281Z,74.20
2018-04-30T08:56:06.301Z,74.10
2018-04-30T08:58:32.541Z,74.00
2018-04-30T09:00:58.869Z,73.90
2018-04-30T09:03:25.119Z,73.10
2018-04-30T09:05:51.417Z,74.30
2018-04-30T09:08:21.702Z,73.20
2018-04-30T09:10:47.998Z,72.70
2018-04-30T09:13:14.257Z,73.60
2018-04-30T09:15:41.195Z,73.80
2018-04-30T09:18:07.541Z,73.60
2018-04-30T09:20:33.777Z,73.80
2018-04-30T09:23:00.787Z,74.70
2018-04-30T09:25:27.790Z,73.60
2018-04-30T09:27:54.633Z,73.60
2018-04-30T09:30:20.907Z,73.00
2018-04-30T09:32:47.281Z,73.20
2018-04-30T09:35:13.546Z,73.50
2018-04-30T09:37:39.850Z,70.50
2018-04-30T09:40:07.875Z,69.20
2018-04-30T09:42:34.194Z,69.20
2018-04-30T09:45:00.451Z,69.40
2018-04-30T09:47:26.744Z,68.50
2018-04-30T09:49:53.333Z,67.30
2018-04-30T09:52:20.170Z,68.90
2018-04-30T09:54:46.481Z,69.80
2018-04-30T09:57:13.017Z,69.60
2018-04-30T09:59:39.265Z,69.50
2018-04-30T10:02:05.517Z,68.20
2018-04-30T10:04:31.845Z,66.70
2018-04-30T10:06:58.105Z,66.20
2018-04-30T10:09:27.103Z,69.00
2018-04-30T10:11:53.345Z,67.50
2018-04-30T10:14:20.301Z,67.60
2018-04-30T10:16:46.567Z,67.50
2018-04-30T10:19:13.173Z,68.70
2018-04-30T10:21:39.438Z,69.40
2018-04-30T10:24:07.413Z,66.90
2018-04-30T10:26:33.670Z,66.30
2018-04-30T10:29:00.739Z,67.60
2018-04-30T10:31:27.607Z,67.60
2018-04-30T10:33:53.946Z,67.30
2018-04-30T10:36:20.658Z,66.70
2018-04-30T10:38:46.964Z,68.00
2018-04-30T10:41:13.879Z,68.00
2018-04-30T10:43:40.177Z,69.00
2018-04-30T10:46:06.473Z,69.20
2018-04-30T10:48:32.931Z,68.40
2018-04-30T10:50:59.774Z,68.00
2018-04-30T10:53:27.268Z,69.40
2018-04-30T10:55:53.539Z,69.30
2018-04-30T10:58:20.001Z,69.70
2018-04-30T11:00:46.277Z,69.80
2018-04-30T11:03:12.541Z,67.30
2018-04-30T11:05:38.814Z,67.00
2018-04-30T11:08:05.097Z,68.00
2018-04-30T11:10:31.361Z,67.30
2018-04-30T11:12:57.609Z,68.40
2018-04-30T11:15:23.885Z,67.50
2018-04-30T11:17:50.121Z,67.50
2018-04-30T11:20:16.833Z,68.10
2018-04-30T11:22:45.492Z,70.50
2018-04-30T11:25:11.743Z,70.40
2018-04-30T11:27:38.003Z,70.90
2018-04-30T11:30:04.355Z,72.00
2018-04-30T11:32:31.389Z,70.10
2018-04-30T11:34:57.705Z,70.00
2018-04-30T11:37:25.045Z,67.00
2018-04-30T11:39:51.321Z,66.90
2018-04-30T11:42:18.417Z,67.20
2018-04-30T11:44:44.721Z,67.20
2018-04-30T11:47:10.999Z,63.30
2018-04-30T11:49:37.338Z,63.30
2018-04-30T11:52:03.839Z,62.60
2018-04-30T11:54:30.453Z,64.10
2018-04-30T11:56:56.771Z,65.40
2018-04-30T11:59:23.765Z,66.40
2018-04-30T12:01:50.043Z,66.40
2018-04-30T12:04:17.064Z,65.50
2018-04-30T12:06:43.578Z,65.40
2018-04-30T12:09:10.337Z,65.70
2018-04-30T12:11:36.624Z,68.00
2018-04-30T12:14:03.026Z,68.90
2018-04-30T12:16:29.348Z,71.10
2018-04-30T12:18:55.721Z,71.70
2018-04-30T12:21:22.017Z,74.20
2018-04-30T12:23:48.741Z,76.00
2018-04-30T12:26:15.467Z,73.70
2018-04-30T12:28:42.766Z,73.50
2018-04-30T12:31:09.062Z,73.20
2018-04-30T12:33:35.812Z,71.60
2018-04-30T12:36:02.851Z,70.10
2018-04-30T12:38:29.089Z,70.00
2018-04-30T12:40:55.466Z,71.40
2018-04-30T12:43:21.733Z,72.40
2018-04-30T12:45:48.019Z,72.30
2018-04-30T12:48:15.061Z,72.10
2018-04-30T12:50:41.367Z,72.10
2018-04-30T12:53:07.746Z,72.50
2018-04-30T12:55:34.761Z,75.20
2018-04-30T12:58:01.825Z,80.00
2018-04-30T13:00:28.341Z,79.90
2018-04-30T13:02:54.637Z,81.50
2018-04-30T13:05:20.894Z,81.40
2018-04-30T13:07:47.189Z,79.60
2018-04-30T13:10:13.510Z,78.70
2018-04-30T13:12:41.045Z,78.60
2018-04-30T13:15:07.299Z,79.30
2018-04-30T13:17:34.446Z,71.80
2018-04-30T13:20:00.700Z,76.30
2018-04-30T13:22:27.313Z,73.20
2018-04-30T13:24:53.557Z,71.40
2018-04-30T13:27:19.817Z,64.30
2018-04-30T13:29:46.120Z,63.30
2018-04-30T13:32:12.739Z,63.30
2018-04-30T13:34:39.054Z,62.10
2018-04-30T13:37:06.808Z,64.10
2018-04-30T13:39:33.165Z,62.10
2018-04-30T13:41:59.485Z,57.50
2018-04-30T13:44:25.770Z,58.00
2018-04-30T13:46:52.042Z,59.60
2018-04-30T13:49:18.386Z,57.80
2018-04-30T13:51:44.688Z,59.80
2018-04-30T13:54:11.350Z,60.00
2018-04-30T13:56:37.633Z,60.70
2018-04-30T13:59:04.261Z,61.10
2018-04-30T14:01:31.544Z,61.50
2018-04-30T14:03:58.381Z,61.30
2018-04-30T14:06:24.622Z,62.10
2018-04-30T14:08:51.257Z,56.90
2018-04-30T14:11:17.526Z,55.40
2018-04-30T14:13:44.254Z,51.70
2018-04-30T14:16:10.534Z,51.40
2018-04-30T14:18:37.102Z,53.10
2018-04-30T14:21:03.356Z,53.10
2018-04-30T14:23:29.624Z,54.60
2018-04-30T14:25:56.686Z,53.60
2018-04-30T14:28:22.941Z,53.60
2018-04-30T14:30:49.188Z,51.90
2018-04-30T14:33:15.441Z,51.50
2018-04-30T14:35:41.721Z,53.00
2018-04-30T14:38:07.965Z,52.10
2018-04-30T14:40:34.245Z,54.90
2018-04-30T14:43:00.638Z,55.00
2018-04-30T14:45:26.917Z,52.20
2018-04-30T14:47:53.424Z,50.60
2018-04-30T14:50:20.585Z,47.90
2018-04-30T14:52:47.203Z,43.70
2018-04-30T14:55:13.509Z,46.10
2018-04-30T14:57:40.442Z,46.80
2018-04-30T15:00:06.731Z,48.40
2018-04-30T15:02:33.311Z,46.20
2018-04-30T15:05:02.334Z,47.50
2018-04-30T15:07:28.598Z,47.40
2018-04-30T15:09:54.876Z,49.80
2018-04-30T15:12:21.275Z,51.40
2018-04-30T15:14:48.309Z,50.70
2018-04-30T15:17:14.560Z,50.00
2018-04-30T15:19:41.182Z,49.10
2018-04-30T15:22:07.429Z,45.90
2018-04-30T15:24:33.703Z,48.00
2018-04-30T15:27:00.079Z,48.10
2018-04-30T15:29:26.365Z,51.20
2018-04-30T15:31:52.710Z,52.70
2018-04-30T15:34:18.979Z,54.60
2018-04-30T15:36:45.226Z,55.70
2018-04-30T15:39:11.485Z,54.30
2018-04-30T15:41:37.770Z,52.00
2018-04-30T15:44:04.397Z,50.30
2018-04-30T15:46:30.649Z,52.50
2018-04-30T15:48:57.489Z,53.90
2018-04-30T15:51:23.781Z,51.10
2018-04-30T15:53:50.269Z,48.30
2018-04-30T15:56:16.573Z,50.10
2018-04-30T15:58:42.822Z,49.80
2018-04-30T16:01:09.101Z,50.90
2018-04-30T16:03:35.337Z,52.50
2018-04-30T16:06:01.889Z,53.20
2018-04-30T16:08:28.137Z,53.00
2018-04-30T16:10:54.934Z,53.80
2018-04-30T16:13:21.941Z,55.80
2018-04-30T16:15:48.466Z,56.40
2018-04-30T16:18:15.699Z,57.00
2018-04-30T16:20:42.009Z,57.80
2018-04-30T16:23:08.253Z,58.30
2018-04-30T16:25:34.849Z,58.10
2018-04-30T16:28:01.141Z,58.60
2018-04-30T16:30:27.421Z,59.30
2018-04-30T16:32:53.677Z,60.40
2018-04-30T16:35:19.933Z,60.30
2018-04-30T16:37:46.435Z,60.10
2018-04-30T16:40:12.706Z,60.30
2018-04-30T16:42:38.953Z,60.70
2018-04-30T16:45:05.746Z,59.90
2018-04-30T16:47:32.009Z,59.20
2018-04-30T16:49:58.281Z,60.40
2018-04-30T16:52:24.556Z,60.50
2018-04-30T16:54:51.005Z,57.50
2018-04-30T16:57:17.249Z,56.60
2018-04-30T16:59:43.498Z,56.60
2018-04-30T17:02:10.285Z,57.20
2018-04-30T17:04:36.582Z,56.40
2018-04-30T17:07:02.886Z,56.80
2018-04-30T17:09:29.141Z,58.40
2018-04-30T17:11:55.434Z,59.30
2018-04-30T17:14:21.985Z,58.60
2018-04-30T17:16:48.269Z,60.10
2018-04-30T17:19:14.874Z,59.10
2018-04-30T17:21:44.038Z,58.40
2018-04-30T17:24:10.651Z,58.30
2018-04-30T17:26:36.882Z,59.30
2018-04-30T17:29:03.181Z,58.10
2018-04-30T17:31:29.437Z,58.50
2018-04-30T17:33:55.774Z,60.40
2018-04-30T17:36:22.833Z,62.00
2018-04-30T17:38:49.849Z,63.60
2018-04-30T17:41:17.054Z,62.60
2018-04-30T17:43:44.413Z,59.40
2018-04-30T17:46:10.933Z,59.40
2018-04-30T17:48:37.533Z,58.60
2018-04-30T17:51:04.165Z,60.40
2018-04-30T17:53:30.458Z,60.70
2018-04-30T17:55:56.735Z,62.70
2018-04-30T17:58:23.012Z,65.70
2018-04-30T18:00:50.028Z,67.40
2018-04-30T18:03:16.437Z,67.30
2018-04-30T18:05:42.721Z,66.30
2018-04-30T18:08:09.934Z,65.60
2018-04-30T18:10:36.202Z,65.50
2018-04-30T18:13:02.484Z,65.20
2018-04-30T18:15:29.280Z,65.60
2018-04-30T18:17:56.325Z,66.00
2018-04-30T18:20:22.569Z,65.90
2018-04-30T18:22:48.829Z,65.00
2018-04-30T18:25:15.085Z,64.50
2018-04-30T18:27:41.398Z,62.90
2018-04-30T18:30:07.676Z,63.10
2018-04-30T18:32:33.956Z,63.60
2018-04-30T18:35:00.729Z,63.80
2018-04-30T18:37:26.993Z,63.90
2018-04-30T18:39:53.473Z,64.50
2018-04-30T18:42:19.745Z,64.40
2018-04-30T18:44:50.494Z,64.50
2018-04-30T18:47:16.842Z,64.00
2018-04-30T18:49:44.109Z,62.30
2018-04-30T18:52:11.670Z,60.60
2018-04-30T18:54:37.969Z,60.60
2018-04-30T18:57:04.286Z,60.40
2018-04-30T18:59:30.521Z,60.60
2018-04-30T19:01:56.845Z,60.80
2018-04-30T19:04:23.105Z,61.50
2018-04-30T19:06:49.373Z,61.10
2018-04-30T19:09:15.626Z,61.30
2018-04-30T19:11:41.898Z,62.30
2018-04-30T19:14:08.363Z,62.80
2018-04-30T19:16:34.673Z,59.20
2018-04-30T19:19:01.034Z,59.30
2018-04-30T19:21:27.504Z,59.10
2018-04-30T19:23:53.777Z,59.80
2018-04-30T19:26:20.068Z,60.30
2018-04-30T19:28:46.321Z,60.60
2018-04-30T19:31:12.574Z,61.50
2018-04-30T19:33:39.043Z,61.60
2018-04-30T19:36:05.293Z,62.10
2018-04-30T19:38:31.564Z,62.20
2018-04-30T19:40:57.805Z,62.10
2018-04-30T19:43:24.068Z,62.40
2018-04-30T19:45:50.614Z,63.40
2018-04-30T19:48:16.885Z,63.30
2018-04-30T19:50:43.141Z,63.60
2018-04-30T19:53:09.413Z,63.90
2018-04-30T19:55:35.657Z,63.80
2018-04-30T19:58:02.470Z,64.10
2018-04-30T20:00:28.712Z,63.80
2018-04-30T20:02:54.981Z,64.00
2018-04-30T20:05:21.237Z,64.60
2018-04-30T20:07:47.501Z,64.80
2018-04-30T20:10:14.139Z,64.80
2018-04-30T20:12:40.401Z,64.40
2018-04-30T20:15:06.706Z,65.90
2018-04-30T20:17:32.991Z,64.30
2018-04-30T20:19:59.741Z,64.60
2018-04-30T20:22:26.566Z,64.70
2018-04-30T20:24:52.821Z,65.30
2018-04-30T20:27:19.855Z,65.00
2018-04-30T20:29:46.849Z,64.90
2018-04-30T20:32:13.102Z,64.80
2018-04-30T20:34:39.443Z,64.90
2018-04-30T20:37:05.701Z,64.90
2018-04-30T20:39:32.584Z,64.70
2018-04-30T20:41:58.817Z,65.50
2018-04-30T20:44:25.537Z,65.10
2018-04-30T20:46:52.496Z,65.30
2018-04-30T20:49:19.155Z,65.90
2018-04-30T20:51:45.373Z,66.00
2018-04-30T20:54:11.618Z,65.80
2018-04-30T20:56:37.873Z,65.80
2018-04-30T20:59:04.114Z,66.50
2018-04-30T21:01:30.927Z,65.80
2018-04-30T21:03:57.169Z,66.30
2018-04-30T21:06:23.980Z,65.20
2018-04-30T21:09:03.164Z,64.40
2018-04-30T21:11:29.455Z,63.80
2018-04-30T21:13:55.687Z,63.90
2018-04-30T21:16:21.950Z,64.80
2018-04-30T21:18:48.185Z,65.20
2018-04-30T21:21:14.441Z,65.20
2018-04-30T21:23:55.932Z,66.20
2018-04-30T21:26:22.257Z,65.90
2018-04-30T21:28:48.425Z,65.80
2018-04-30T21:31:14.666Z,65.70
2018-04-30T21:33:42.820Z,65.60
2018-04-30T21:36:12.819Z,65.90
2018-04-30T21:38:42.220Z,65.80
2018-04-30T21:41:10.265Z,65.80
2018-04-30T21:43:38.673Z,65.70
2018-04-30T21:46:10.228Z,65.10
2018-04-30T21:48:39.734Z,64.60
2018-04-30T21:51:08.217Z,64.90
2018-04-30T21:53:36.219Z,65.50
2018-04-30T21:56:03.657Z,65.40
2018-04-30T21:58:29.953Z,64.70
2018-04-30T22:00:56.325Z,65.50
2018-04-30T22:03:22.583Z,65.80
2018-04-30T22:05:48.862Z,66.30
2018-04-30T22:08:15.597Z,65.70
2018-04-30T22:10:42.562Z,66.50
2018-04-30T22:13:11.255Z,66.90
2018-04-30T22:15:41.278Z,67.00
2018-04-30T22:18:08.493Z,67.10
2018-04-30T22:20:36.704Z,67.10
2018-04-30T22:23:04.675Z,67.40
2018-04-30T22:25:31.369Z,67.80
2018-04-30T22:27:57.630Z,68.80
2018-04-30T22:30:23.848Z,68.60
2018-04-30T22:32:50.109Z,68.70
2018-04-30T22:35:16.354Z,68.90
2018-04-30T22:37:43.045Z,69.40
2018-04-30T22:40:09.261Z,69.30
2018-04-30T22:42:38.212Z,68.90
2018-04-30T22:45:06.690Z,69.80
2018-04-30T22:47:36.709Z,69.50
2018-04-30T22:50:03.757Z,69.60
2018-04-30T22:52:31.150Z,69.50
2018-04-30T22:54:57.417Z,69.80
2018-04-30T22:57:23.649Z,69.50
2018-04-30T22:59:49.895Z,69.60
2018-04-30T23:02:16.150Z,69.60
2018-04-30T23:04:42.382Z,69.80
2018-04-30T23:07:08.634Z,69.80
2018-04-30T23:09:39.249Z,69.80
2018-04-30T23:12:08.889Z,69.70
2018-04-30T23:14:38.361Z,69.70
2018-04-30T23:17:08.844Z,69.80
2018-04-30T23:19:38.227Z,69.90
2018-04-30T23:22:08.218Z,69.90
2018-04-30T23:24:39.187Z,70.30
2018-04-30T23:27:08.856Z,70.10
2018-04-30T23:29:36.315Z,70.50
2018-04-30T23:32:07.870Z,70.40
2018-04-30T23:34:35.253Z,70.40
2018-04-30T23:37:03.404Z,70.70
2018-04-30T23:39:31.784Z,70.60
2018-04-30T23:41:58.444Z,70.90
2018-04-30T23:44:25.679Z,70.60
2018-04-30T23:46:51.911Z,70.50
2018-04-30T23:49:18.485Z,70.80
2018-04-30T23:51:44.768Z,71.20
2018-04-30T23:54:11.017Z,71.30
2018-04-30T23:56:38.649Z,71.60
2018-04-30T23:59:08.869Z,71.60
